createdAt,value
2022-08-22T00:01:15.118Z,47.42
2022-08-22T00:02:57.967Z,47.14
2022-08-22T00:03:11.474Z,45.83
2022-08-22T00:03:58.957Z,47.79
2022-08-22T00:06:45.915Z,47.90
2022-08-22T00:09:37.286Z,47.72
2022-08-22T00:12:15.208Z,48.11
2022-08-22T00:15:03.962Z,48.00
2022-08-22T00:17:40.329Z,48.32
2022-08-22T00:20:28.320Z,48.04
2022-08-22T00:23:21.315Z,48.06
2022-08-22T00:26:09.442Z,48.53
2022-08-22T00:28:49.312Z,48.22
2022-08-22T00:31:27.073Z,48.14
2022-08-22T00:34:06.170Z,48.02
2022-08-22T00:36:56.464Z,48.50
2022-08-22T00:39:40.534Z,48.45
2022-08-22T00:42:32.053Z,48.32
2022-08-22T00:45:22.851Z,48.65
2022-08-22T00:48:08.002Z,48.67
2022-08-22T00:51:18.565Z,48.68
2022-08-22T00:53:52.730Z,48.53
2022-08-22T00:56:25.085Z,48.68
2022-08-22T00:59:42.250Z,48.98
2022-08-22T01:02:29.669Z,48.79
2022-08-22T01:05:21.952Z,49.08
2022-08-22T01:08:07.249Z,48.87
2022-08-22T01:11:01.261Z,49.22
2022-08-22T01:13:48.135Z,49.25
2022-08-22T01:16:17.722Z,49.24
2022-08-22T01:19:06.742Z,49.37
2022-08-22T01:21:43.411Z,49.60
2022-08-22T01:25:17.672Z,49.82
2022-08-22T01:28:18.944Z,49.64
2022-08-22T01:31:10.778Z,49.64
2022-08-22T01:33:38.203Z,49.79
2022-08-22T01:36:30.407Z,49.96
2022-08-22T01:39:01.636Z,49.69
2022-08-22T01:41:39.406Z,49.90
2022-08-22T01:44:19.136Z,50.16
2022-08-22T01:46:51.575Z,50.22
2022-08-22T01:49:24.468Z,50.03
2022-08-22T01:52:01.843Z,50.33
2022-08-22T01:55:17.153Z,50.47
2022-08-22T01:58:17.795Z,50.28
2022-08-22T02:01:06.465Z,50.37
2022-08-22T02:03:51.458Z,50.57
2022-08-22T02:06:24.504Z,50.63
2022-08-22T02:09:02.943Z,50.94
2022-08-22T02:11:46.517Z,50.97
2022-08-22T02:14:54.692Z,50.86
2022-08-22T02:17:33.390Z,51.20
2022-08-22T02:20:23.253Z,50.89
2022-08-22T02:23:19.126Z,50.99
2022-08-22T02:26:03.779Z,51.38
2022-08-22T02:29:04.688Z,51.17
2022-08-22T02:31:47.954Z,51.26
2022-08-22T02:34:22.309Z,51.29
2022-08-22T02:37:03.306Z,51.37
2022-08-22T02:39:38.448Z,51.48
2022-08-22T02:42:32.777Z,51.53
2022-08-22T02:45:21.962Z,51.44
2022-08-22T02:48:13.571Z,51.42
2022-08-22T02:50:52.471Z,51.40
2022-08-22T02:53:55.873Z,51.29
2022-08-22T02:56:32.325Z,51.50
2022-08-22T02:59:30.771Z,51.53
2022-08-22T03:01:57.933Z,51.19
2022-08-22T03:04:30.477Z,51.59
2022-08-22T03:07:22.583Z,51.50
2022-08-22T03:09:51.739Z,51.37
2022-08-22T03:12:25.470Z,51.53
2022-08-22T03:15:11.824Z,51.89
2022-08-22T03:17:51.005Z,51.85
2022-08-22T03:20:38.781Z,51.82
2022-08-22T03:23:56.884Z,51.94
2022-08-22T03:26:33.486Z,52.10
2022-08-22T03:29:08.842Z,52.17
2022-08-22T03:31:35.974Z,51.91
2022-08-22T03:34:22.650Z,52.49
2022-08-22T03:37:21.009Z,52.47
2022-08-22T03:39:59.817Z,52.47
2022-08-22T03:42:54.164Z,52.60
2022-08-22T03:45:51.427Z,52.19
2022-08-22T03:48:23.756Z,52.61
2022-08-22T03:51:18.105Z,52.43
2022-08-22T03:53:59.887Z,52.24
2022-08-22T03:56:58.895Z,52.65
2022-08-22T04:00:05.941Z,52.70
2022-08-22T04:02:43.855Z,52.50
2022-08-22T04:05:44.039Z,52.51
2022-08-22T04:08:26.422Z,52.59
2022-08-22T04:11:21.672Z,52.70
2022-08-22T04:14:34.122Z,52.56
2022-08-22T04:17:35.178Z,52.78
2022-08-22T04:20:26.675Z,52.47
2022-08-22T04:23:26.625Z,52.63
2022-08-22T04:26:01.863Z,52.99
2022-08-22T04:28:52.996Z,52.74
2022-08-22T04:31:29.542Z,52.67
2022-08-22T04:34:24.927Z,53.00
2022-08-22T04:37:09.849Z,52.88
2022-08-22T04:39:41.724Z,52.66
2022-08-22T04:42:32.246Z,53.01
2022-08-22T04:45:23.587Z,53.23
2022-08-22T04:48:27.023Z,53.33
2022-08-22T04:51:08.182Z,53.33
2022-08-22T04:53:55.021Z,53.40
2022-08-22T04:56:46.060Z,53.39
2022-08-22T04:59:17.783Z,53.23
2022-08-22T05:01:46.779Z,53.17
2022-08-22T05:04:26.331Z,53.22
2022-08-22T05:07:15.818Z,53.03
2022-08-22T05:09:48.988Z,53.25
2022-08-22T05:12:25.137Z,53.12
2022-08-22T05:15:07.263Z,53.41
2022-08-22T05:17:38.821Z,53.37
2022-08-22T05:20:10.707Z,53.21
2022-08-22T05:22:48.762Z,53.50
2022-08-22T05:25:21.912Z,53.58
2022-08-22T05:27:53.307Z,53.39
2022-08-22T05:30:28.289Z,53.35
2022-08-22T05:33:32.203Z,53.54
2022-08-22T05:36:09.038Z,53.73
2022-08-22T05:38:41.320Z,53.74
2022-08-22T05:41:17.452Z,53.98
2022-08-22T05:43:48.990Z,53.50
2022-08-22T05:46:47.986Z,53.73
2022-08-22T05:49:22.357Z,54.06
2022-08-22T05:52:06.757Z,54.36
2022-08-22T05:54:56.945Z,54.29
2022-08-22T05:57:35.217Z,54.47
2022-08-22T06:00:12.745Z,54.61
2022-08-22T06:02:48.298Z,54.61
2022-08-22T06:05:23.706Z,54.78
2022-08-22T06:07:53.507Z,54.52
2022-08-22T06:10:23.064Z,54.88
2022-08-22T06:13:00.140Z,54.62
2022-08-22T06:15:51.656Z,55.19
2022-08-22T06:18:26.714Z,54.90
2022-08-22T06:20:58.177Z,54.85
2022-08-22T06:23:27.802Z,54.96
2022-08-22T06:25:59.536Z,55.04
2022-08-22T06:28:54.780Z,55.11
2022-08-22T06:31:43.287Z,55.27
2022-08-22T06:34:15.678Z,55.15
2022-08-22T06:36:48.438Z,54.94
2022-08-22T06:39:36.619Z,55.21
2022-08-22T06:42:16.355Z,55.07
2022-08-22T06:44:50.034Z,55.36
2022-08-22T06:47:22.831Z,55.10
2022-08-22T06:49:54.441Z,55.16
2022-08-22T06:52:25.003Z,55.22
2022-08-22T06:55:00.262Z,55.10
2022-08-22T06:57:34.770Z,54.95
2022-08-22T07:00:07.510Z,54.60
2022-08-22T07:02:40.810Z,54.97
2022-08-22T07:05:13.838Z,54.82
2022-08-22T07:07:40.354Z,54.69
2022-08-22T07:10:07.037Z,54.77
2022-08-22T07:12:37.772Z,54.63
2022-08-22T07:15:20.663Z,54.72
2022-08-22T07:17:53.622Z,54.79
2022-08-22T07:20:27.902Z,54.78
2022-08-22T07:23:23.516Z,54.56
2022-08-22T07:26:06.674Z,54.47
2022-08-22T07:28:58.666Z,54.42
2022-08-22T07:31:39.874Z,54.25
2022-08-22T07:34:38.098Z,54.20
2022-08-22T07:37:31.330Z,53.82
2022-08-22T07:40:00.917Z,53.96
2022-08-22T07:42:30.481Z,53.77
2022-08-22T07:45:29.355Z,54.01
2022-08-22T07:48:25.548Z,53.68
2022-08-22T07:51:17.550Z,53.54
2022-08-22T07:54:00.992Z,53.49
2022-08-22T07:56:33.257Z,53.50
2022-08-22T07:59:12.834Z,53.24
2022-08-22T08:01:45.873Z,52.91
2022-08-22T08:04:20.865Z,52.74
2022-08-22T08:06:51.370Z,52.87
2022-08-22T08:09:19.635Z,52.49
2022-08-22T08:11:49.171Z,52.23
2022-08-22T08:14:23.429Z,52.30
2022-08-22T08:17:23.689Z,52.20
2022-08-22T08:19:51.885Z,52.08
2022-08-22T08:22:24.791Z,51.69
2022-08-22T08:24:56.115Z,51.64
2022-08-22T08:27:44.999Z,51.56
2022-08-22T08:30:46.621Z,51.34
2022-08-22T08:33:26.272Z,50.98
2022-08-22T08:36:16.478Z,50.61
2022-08-22T08:38:55.098Z,50.48
2022-08-22T08:42:03.126Z,49.96
2022-08-22T08:45:07.281Z,49.47
2022-08-22T08:47:52.054Z,49.30
2022-08-22T08:50:40.538Z,48.92
2022-08-22T08:53:26.113Z,48.47
2022-08-22T08:56:26.079Z,48.13
2022-08-22T08:59:10.823Z,47.75
2022-08-22T09:01:46.163Z,47.75
2022-08-22T09:04:35.777Z,47.54
2022-08-22T09:07:21.206Z,47.52
2022-08-22T09:09:52.542Z,47.63
2022-08-22T09:12:56.518Z,47.26
2022-08-22T09:16:11.853Z,47.17
2022-08-22T09:19:02.344Z,46.52
2022-08-22T09:21:47.280Z,46.24
2022-08-22T09:24:52.426Z,45.89
2022-08-22T09:27:29.747Z,45.71
2022-08-22T09:30:19.852Z,45.63
2022-08-22T09:32:59.200Z,45.52
2022-08-22T09:35:28.223Z,45.19
2022-08-22T09:38:12.561Z,44.57
2022-08-22T09:41:17.462Z,44.12
2022-08-22T09:44:22.355Z,43.93
2022-08-22T09:47:03.026Z,43.35
2022-08-22T09:49:44.865Z,43.00
2022-08-22T09:52:34.238Z,42.82
2022-08-22T09:55:08.606Z,42.43
2022-08-22T09:57:52.278Z,42.43
2022-08-22T10:00:28.490Z,42.07
2022-08-22T10:03:10.385Z,41.95
2022-08-22T10:05:47.227Z,41.82
2022-08-22T10:08:32.101Z,41.40
2022-08-22T10:11:21.069Z,41.38
2022-08-22T10:13:56.570Z,40.97
2022-08-22T10:16:57.025Z,40.38
2022-08-22T10:19:38.188Z,40.23
2022-08-22T10:22:19.782Z,40.30
2022-08-22T10:25:07.527Z,40.34
2022-08-22T10:27:40.216Z,40.10
2022-08-22T10:30:11.765Z,39.45
2022-08-22T10:33:29.077Z,39.06
2022-08-22T10:36:14.099Z,39.42
2022-08-22T10:38:47.482Z,39.08
2022-08-22T10:41:22.623Z,38.55
2022-08-22T10:44:01.204Z,38.29
2022-08-22T10:46:36.771Z,37.83
2022-08-22T10:49:15.369Z,38.02
2022-08-22T10:52:16.379Z,37.43
2022-08-22T10:55:11.083Z,37.61
2022-08-22T10:57:40.312Z,37.15
2022-08-22T11:00:25.478Z,36.64
2022-08-22T11:03:10.417Z,36.62
2022-08-22T11:05:47.803Z,36.68
2022-08-22T11:08:41.458Z,36.02
2022-08-22T11:11:25.249Z,36.29
2022-08-22T11:14:24.389Z,35.98
2022-08-22T11:17:02.783Z,35.67
2022-08-22T11:19:46.765Z,35.30
2022-08-22T11:22:32.006Z,35.27
2022-08-22T11:25:14.226Z,35.01
2022-08-22T11:27:59.231Z,34.85
2022-08-22T11:30:50.880Z,34.60
2022-08-22T11:33:33.808Z,34.70
2022-08-22T11:36:34.485Z,34.20
2022-08-22T11:39:06.562Z,33.50
2022-08-22T11:41:53.260Z,33.45
2022-08-22T11:44:43.053Z,33.19
2022-08-22T11:47:26.628Z,32.92
2022-08-22T11:50:13.815Z,32.66
2022-08-22T11:52:51.644Z,33.18
2022-08-22T11:55:50.976Z,32.72
2022-08-22T11:58:48.445Z,32.56
2022-08-22T12:01:23.512Z,32.45
2022-08-22T12:04:31.456Z,32.43
2022-08-22T12:07:18.662Z,32.31
2022-08-22T12:09:55.187Z,32.03
2022-08-22T12:12:36.075Z,31.75
2022-08-22T12:15:21.330Z,31.75
2022-08-22T12:18:15.342Z,31.55
2022-08-22T12:21:24.212Z,31.31
2022-08-22T12:24:21.556Z,31.10
2022-08-22T12:27:08.068Z,31.35
2022-08-22T12:29:56.838Z,30.94
2022-08-22T12:33:23.051Z,31.08
2022-08-22T12:36:18.150Z,31.43
2022-08-22T12:38:53.882Z,31.45
2022-08-22T12:41:37.401Z,31.29
2022-08-22T12:44:41.286Z,30.72
2022-08-22T12:47:17.346Z,30.66
2022-08-22T12:50:01.899Z,30.72
2022-08-22T12:52:41.509Z,30.67
2022-08-22T12:55:48.721Z,30.54
2022-08-22T12:58:41.465Z,30.42
2022-08-22T13:01:10.880Z,30.42
2022-08-22T13:03:48.866Z,30.51
2022-08-22T13:07:02.798Z,30.05
2022-08-22T13:09:33.927Z,30.11
2022-08-22T13:12:19.930Z,30.27
2022-08-22T13:14:53.312Z,30.21
2022-08-22T13:17:24.319Z,30.09
2022-08-22T13:20:24.244Z,29.91
2022-08-22T13:22:54.679Z,30.01
2022-08-22T13:25:25.514Z,29.93
2022-08-22T13:28:00.061Z,29.73
2022-08-22T13:30:37.530Z,30.01
2022-08-22T13:33:15.929Z,29.85
2022-08-22T13:36:00.296Z,29.82
2022-08-22T13:38:34.698Z,29.78
2022-08-22T13:41:04.855Z,29.67
2022-08-22T13:43:59.705Z,29.71
2022-08-22T13:46:35.528Z,29.44
2022-08-22T13:49:07.146Z,29.85
2022-08-22T13:52:08.327Z,29.74
2022-08-22T13:54:59.692Z,29.54
2022-08-22T13:57:37.796Z,29.64
2022-08-22T14:00:57.462Z,29.88
2022-08-22T14:03:35.055Z,29.62
2022-08-22T14:06:37.767Z,29.92
2022-08-22T14:09:13.487Z,30.08
2022-08-22T14:11:48.485Z,30.01
2022-08-22T14:14:31.822Z,30.07
2022-08-22T14:16:59.504Z,30.06
2022-08-22T14:19:58.740Z,29.67
2022-08-22T14:22:31.707Z,29.76
2022-08-22T14:25:08.532Z,29.40
2022-08-22T14:27:57.604Z,29.40
2022-08-22T14:30:38.836Z,29.55
2022-08-22T14:33:27.943Z,29.58
2022-08-22T14:36:02.059Z,29.44
2022-08-22T14:38:36.473Z,29.37
2022-08-22T14:41:09.899Z,29.30
2022-08-22T14:43:52.894Z,29.13
2022-08-22T14:46:29.195Z,29.04
2022-08-22T14:49:47.620Z,28.96
2022-08-22T14:52:29.599Z,29.16
2022-08-22T14:55:11.898Z,28.87
2022-08-22T14:57:45.375Z,28.96
2022-08-22T15:00:13.486Z,28.95
2022-08-22T15:02:41.798Z,28.84
2022-08-22T15:05:22.641Z,28.55
2022-08-22T15:07:56.055Z,28.48
2022-08-22T15:10:34.357Z,28.49
2022-08-22T15:13:14.603Z,28.40
2022-08-22T15:15:55.027Z,28.12
2022-08-22T15:18:35.706Z,28.21
2022-08-22T15:21:28.923Z,27.79
2022-08-22T15:23:59.802Z,27.81
2022-08-22T15:26:34.121Z,27.79
2022-08-22T15:29:06.961Z,28.03
2022-08-22T15:31:34.377Z,27.76
2022-08-22T15:34:14.001Z,27.68
2022-08-22T15:37:08.484Z,27.71
2022-08-22T15:39:58.998Z,27.81
2022-08-22T15:42:30.578Z,27.53
2022-08-22T15:44:59.043Z,27.39
2022-08-22T15:47:41.517Z,27.71
2022-08-22T15:50:14.772Z,27.88
2022-08-22T15:53:21.926Z,28.02
2022-08-22T15:56:19.563Z,27.83
2022-08-22T15:59:09.197Z,27.89
2022-08-22T16:01:43.912Z,28.01
2022-08-22T16:04:43.744Z,28.05
2022-08-22T16:07:27.420Z,27.93
2022-08-22T16:09:58.873Z,27.99
2022-08-22T16:12:47.950Z,28.21
2022-08-22T16:15:56.531Z,28.22
2022-08-22T16:18:42.547Z,28.40
2022-08-22T16:21:14.230Z,28.33
2022-08-22T16:23:56.208Z,28.35
2022-08-22T16:26:31.665Z,28.05
2022-08-22T16:29:13.449Z,28.25
2022-08-22T16:31:43.870Z,28.35
2022-08-22T16:34:16.676Z,28.16
2022-08-22T16:37:22.171Z,28.32
2022-08-22T16:39:50.934Z,28.54
2022-08-22T16:42:22.271Z,28.56
2022-08-22T16:44:56.671Z,28.56
2022-08-22T16:47:41.737Z,28.26
2022-08-22T16:50:09.102Z,28.43
2022-08-22T16:52:50.301Z,28.75
2022-08-22T16:55:29.960Z,28.63
2022-08-22T16:58:07.021Z,28.80
2022-08-22T17:00:36.837Z,28.82
2022-08-22T17:03:18.470Z,29.13
2022-08-22T17:05:50.833Z,29.34
2022-08-22T17:08:23.315Z,29.17
2022-08-22T17:11:17.710Z,29.13
2022-08-22T17:14:23.441Z,29.53
2022-08-22T17:16:54.478Z,29.68
2022-08-22T17:19:43.226Z,30.08
2022-08-22T17:22:24.966Z,30.03
2022-08-22T17:25:13.603Z,30.09
2022-08-22T17:27:44.802Z,30.27
2022-08-22T17:30:22.193Z,30.51
2022-08-22T17:33:27.842Z,30.86
2022-08-22T17:36:04.161Z,30.89
2022-08-22T17:39:12.385Z,30.91
2022-08-22T17:42:29.333Z,31.32
2022-08-22T17:45:32.710Z,31.62
2022-08-22T17:48:14.057Z,31.71
2022-08-22T17:50:48.824Z,32.05
2022-08-22T17:53:52.611Z,32.32
2022-08-22T17:56:41.794Z,32.56
2022-08-22T17:59:30.109Z,33.13
2022-08-22T18:02:16.300Z,33.46
2022-08-22T18:05:07.996Z,33.60
2022-08-22T18:07:54.779Z,33.57
2022-08-22T18:10:50.334Z,34.29
2022-08-22T18:13:37.454Z,34.75
2022-08-22T18:16:13.462Z,34.39
2022-08-22T18:19:16.921Z,34.67
2022-08-22T18:22:04.260Z,34.87
2022-08-22T18:24:44.619Z,35.06
2022-08-22T18:27:34.429Z,35.12
2022-08-22T18:30:05.238Z,35.46
2022-08-22T18:32:43.230Z,35.26
2022-08-22T18:35:42.924Z,35.70
2022-08-22T18:38:19.448Z,36.12
2022-08-22T18:40:52.301Z,36.27
2022-08-22T18:43:45.090Z,36.36
2022-08-22T18:46:37.657Z,36.61
2022-08-22T18:49:33.917Z,36.59
2022-08-22T18:52:09.534Z,36.61
2022-08-22T18:54:46.186Z,37.05
2022-08-22T18:57:47.105Z,37.15
2022-08-22T19:00:59.416Z,37.19
2022-08-22T19:04:04.266Z,37.10
2022-08-22T19:06:52.166Z,37.51
2022-08-22T19:09:41.063Z,37.56
2022-08-22T19:12:50.321Z,37.81
2022-08-22T19:15:38.805Z,38.18
2022-08-22T19:18:26.719Z,38.21
2022-08-22T19:21:47.660Z,38.78
2022-08-22T19:24:26.155Z,38.51
2022-08-22T19:27:10.989Z,38.61
2022-08-22T19:29:37.539Z,38.67
2022-08-22T19:32:12.761Z,38.86
2022-08-22T19:34:47.001Z,39.11
2022-08-22T19:37:31.922Z,39.19
2022-08-22T19:40:11.722Z,39.65
2022-08-22T19:42:41.497Z,39.66
2022-08-22T19:45:25.616Z,39.80
2022-08-22T19:47:59.675Z,39.81
2022-08-22T19:50:33.136Z,39.99
2022-08-22T19:53:22.517Z,40.11
2022-08-22T19:56:18.447Z,40.34
2022-08-22T19:59:03.504Z,39.96
2022-08-22T20:01:55.935Z,40.38
2022-08-22T20:04:34.627Z,40.44
2022-08-22T20:07:14.758Z,40.62
2022-08-22T20:10:09.185Z,40.87
2022-08-22T20:12:54.316Z,41.31
2022-08-22T20:15:25.886Z,41.45
2022-08-22T20:20:57.764Z,41.64
2022-08-22T20:23:32.122Z,41.63
2022-08-22T20:25:59.707Z,41.51
2022-08-22T20:28:54.166Z,41.79
2022-08-22T20:31:26.991Z,41.81
2022-08-22T20:34:26.656Z,41.75
2022-08-22T20:37:09.834Z,41.64
2022-08-22T20:39:59.122Z,41.96
2022-08-22T20:42:30.523Z,42.03
2022-08-22T20:44:59.330Z,41.92
2022-08-22T20:47:36.205Z,41.97
2022-08-22T20:50:11.918Z,42.38
2022-08-22T20:52:51.969Z,42.30
2022-08-22T20:55:27.302Z,42.49
2022-08-22T20:58:22.071Z,42.37
2022-08-22T21:00:51.275Z,42.25
2022-08-22T21:03:29.234Z,42.64
2022-08-22T21:05:55.810Z,42.41
2022-08-22T21:08:26.336Z,42.35
2022-08-22T21:11:39.276Z,42.64
2022-08-22T21:14:25.141Z,42.31
2022-08-22T21:16:53.099Z,42.31
2022-08-22T21:19:24.810Z,42.50
2022-08-22T21:21:51.393Z,42.60
2022-08-22T21:24:21.802Z,42.50
2022-08-22T21:26:55.956Z,42.59
2022-08-22T21:29:32.970Z,42.58
2022-08-22T21:32:31.173Z,42.72
2022-08-22T21:34:58.571Z,42.30
2022-08-22T21:37:33.350Z,42.43
2022-08-22T21:40:15.396Z,42.51
2022-08-22T21:42:44.798Z,42.50
2022-08-22T21:45:44.253Z,42.51
2022-08-22T21:48:35.134Z,42.42
2022-08-22T21:51:29.838Z,42.41
2022-08-22T21:54:24.157Z,42.66
2022-08-22T21:56:53.161Z,42.35
2022-08-22T21:59:21.447Z,42.37
2022-08-22T22:01:52.303Z,42.68
2022-08-22T22:04:19.500Z,42.71
2022-08-22T22:06:45.982Z,42.60
2022-08-22T22:09:15.214Z,42.67
2022-08-22T22:11:41.869Z,42.51
2022-08-22T22:14:08.723Z,42.49
2022-08-22T22:16:35.380Z,42.51
2022-08-22T22:19:01.945Z,42.45
2022-08-22T22:21:28.915Z,42.58
2022-08-22T22:23:59.709Z,42.65
2022-08-22T22:26:26.651Z,42.60
2022-08-22T22:28:53.180Z,42.83
2022-08-22T22:31:19.697Z,42.71
2022-08-22T22:33:50.534Z,42.86
2022-08-22T22:36:24.867Z,42.85
2022-08-22T22:38:52.472Z,42.95
2022-08-22T22:41:20.223Z,43.21
2022-08-22T22:43:46.887Z,42.98
2022-08-22T22:46:13.516Z,43.34
2022-08-22T22:48:40.029Z,43.42
2022-08-22T22:51:09.912Z,43.42
2022-08-22T22:53:43.716Z,43.56
2022-08-22T22:56:18.090Z,43.95
2022-08-22T22:58:49.259Z,43.86
2022-08-22T23:01:25.531Z,44.01
2022-08-22T23:03:58.566Z,43.97
2022-08-22T23:06:31.285Z,43.84
2022-08-22T23:08:58.699Z,43.95
2022-08-22T23:11:28.744Z,44.11
2022-08-22T23:14:01.526Z,44.48
2022-08-22T23:16:28.946Z,44.32
2022-08-22T23:18:56.296Z,44.20
2022-08-22T23:21:26.457Z,44.62
2022-08-22T23:23:57.406Z,44.63
2022-08-22T23:26:24.067Z,44.61
2022-08-22T23:28:50.646Z,44.90
2022-08-22T23:31:48.937Z,44.99
2022-08-22T23:34:18.347Z,45.25
2022-08-22T23:36:46.593Z,45.17
2022-08-22T23:39:15.680Z,45.38
2022-08-22T23:41:43.569Z,45.19
2022-08-22T23:44:13.479Z,45.09
2022-08-22T23:46:41.081Z,45.44
2022-08-22T23:49:07.807Z,45.16
2022-08-22T23:51:34.868Z,45.40
2022-08-22T23:54:03.616Z,45.74
2022-08-22T23:56:45.252Z,45.85
2022-08-22T23:59:20.086Z,45.86
